»·PEaware :: SKY113 KDLS-KMMV

SKY113 :: KDLS-KMMV

FLIGHT INFORMATION

Flight Status: Arrived
Operator:
Sky High Charters
More flights by this operator :: More flights under this callsign
Pilot: Michal O. (28532)
Aircraft: Diamond DA-62
(DA62)
More flights by this aircraft type
Origin: KDLS Columbia Gorge Regl/The Dalle
United States
Destination: KMMV McMinnville Mun
United States
More flights between these airports :: More routes between these airports
Route: DALLS1 LTJ V112 BTG V287 UBG
File this flight plan on PilotEdge
Remarks:
Altitude:
(Current/Filed)
8,000ft
Speed:
(Current/Filed)
180kts
Departed: 19-Jul-21 10:07 AM
Arrived: 19-Jul-21 10:50 AM
Distance/Time
Traveled:
87nm/0:43
Distance/Time
To Go:
Arrived

Flight Plot

Page will automatically refresh every two minutes.

Flight plan parsing failed; only flown route is shown


Map Options




Map Legend


Flown Route
Filed Route
Departure Airport
Arrival Airport
Navaid (VOR, NDB)
Fix

Horizontal Profiles

Position Reports

Time Latitude Longitude Heading Altitude Ground
Speed
19-Jul-21 09:49 45.618441 -121.171879 322 226ft 0kts
19-Jul-21 09:50 45.618441 -121.171879 322 226ft 0kts
19-Jul-21 09:51 45.618441 -121.171879 322 226ft 0kts
19-Jul-21 09:52 45.618441 -121.171879 322 226ft 0kts
19-Jul-21 09:53 45.618441 -121.171879 322 226ft 0kts
19-Jul-21 09:54 45.618441 -121.171879 322 226ft 0kts
19-Jul-21 09:55 45.618441 -121.171879 322 226ft 0kts
19-Jul-21 09:56 45.618441 -121.171879 322 226ft 0kts
19-Jul-21 09:56 45.618441 -121.171879 322 226ft 0kts
19-Jul-21 09:58 45.618441 -121.171879 322 226ft 0kts
19-Jul-21 09:59 45.618441 -121.171879 322 226ft 0kts
19-Jul-21 10:00 45.618441 -121.171879 322 226ft 0kts
19-Jul-21 10:01 45.618441 -121.171879 322 226ft 0kts
19-Jul-21 10:01 45.618441 -121.171879 322 226ft 0kts
19-Jul-21 10:02 45.618612 -121.171401 101 226ft 7kts
19-Jul-21 10:04 45.615498 -121.166714 144 238ft 17kts
19-Jul-21 10:05 45.612194 -121.163166 104 242ft 2kts
19-Jul-21 10:06 45.612564 -121.162361 324 243ft 5kts
19-Jul-21 10:06 45.623116 -121.173522 325 888ft 79kts
19-Jul-21 10:07 45.632646 -121.196325 231 2380ft 90kts
19-Jul-21 10:09 45.607195 -121.176644 133 3968ft 107kts
19-Jul-21 10:10 45.617664 -121.151085 17 5389ft 103kts
19-Jul-21 10:11 45.645071 -121.136988 17 6750ft 107kts
19-Jul-21 10:11 45.668535 -121.124780 18 7869ft 110kts
19-Jul-21 10:12 45.707171 -121.113492 325 8006ft 171kts
19-Jul-21 10:13 45.715787 -121.179576 271 8000ft 176kts
19-Jul-21 10:15 45.718018 -121.261621 271 7999ft 177kts
19-Jul-21 10:16 45.719961 -121.332183 272 7999ft 177kts
19-Jul-21 10:16 45.721555 -121.390643 272 7999ft 176kts
19-Jul-21 10:17 45.723418 -121.460722 272 7999ft 176kts
19-Jul-21 10:18 45.725238 -121.530666 272 7999ft 175kts
19-Jul-21 10:19 45.727006 -121.600364 272 7998ft 175kts
19-Jul-21 10:20 45.728740 -121.670035 271 7999ft 175kts
19-Jul-21 10:21 45.730432 -121.739993 271 8000ft 175kts
19-Jul-21 10:22 45.732109 -121.810985 271 7872ft 176kts
19-Jul-21 10:23 45.733701 -121.880567 271 7869ft 174kts
19-Jul-21 10:24 45.735252 -121.950000 271 7882ft 173kts
19-Jul-21 10:25 45.736748 -122.018774 271 7918ft 172kts
19-Jul-21 10:26 45.737860 -122.087304 260 7944ft 173kts
19-Jul-21 10:27 45.711097 -122.144535 235 7987ft 173kts
19-Jul-21 10:28 45.682656 -122.200292 234 7999ft 174kts
19-Jul-21 10:29 45.653898 -122.256294 234 7999ft 174kts
19-Jul-21 10:30 45.625119 -122.312199 234 7999ft 175kts
19-Jul-21 10:31 45.596214 -122.368206 234 7999ft 175kts
19-Jul-21 10:32 45.566389 -122.423376 233 7999ft 175kts
19-Jul-21 10:33 45.537583 -122.476058 233 7559ft 158kts
19-Jul-21 10:34 45.511446 -122.523872 233 6942ft 150kts
19-Jul-21 10:35 45.486018 -122.570313 234 6397ft 147kts
19-Jul-21 10:36 45.460971 -122.616173 234 5893ft 146kts
19-Jul-21 10:37 45.435489 -122.662592 233 5396ft 152kts
19-Jul-21 10:38 45.409215 -122.710325 233 4898ft 153kts
19-Jul-21 10:39 45.383037 -122.757831 232 4385ft 152kts
19-Jul-21 10:40 45.356859 -122.805221 232 3886ft 153kts
19-Jul-21 10:41 45.330265 -122.853286 233 3393ft 157kts
19-Jul-21 10:42 45.303865 -122.903231 244 2914ft 156kts
19-Jul-21 10:43 45.280962 -122.951847 237 2860ft 145kts
19-Jul-21 10:44 45.258662 -123.000737 238 2308ft 148kts
19-Jul-21 10:45 45.239405 -123.043282 238 1636ft 112kts
19-Jul-21 10:46 45.222832 -123.079827 237 1050ft 102kts
19-Jul-21 10:47 45.208534 -123.111307 236 523ft 92kts
19-Jul-21 10:48 45.195691 -123.139528 237 161ft 55kts
19-Jul-21 10:49 45.195668 -123.142465 54 161ft 11kts
19-Jul-21 10:50 45.198515 -123.138831 13 162ft 12kts
19-Jul-21 10:51 45.198745 -123.138722 51 162ft 0kts
19-Jul-21 10:52 45.198745 -123.138722 51 162ft 0kts
19-Jul-21 10:53 45.198745 -123.138722 51 162ft 0kts
19-Jul-21 10:54 45.198745 -123.138722 51 162ft 0kts
19-Jul-21 10:55 45.198745 -123.138722 51 162ft 0kts
19-Jul-21 10:56 45.198745 -123.138722 51 162ft 0kts
19-Jul-21 10:57 45.198745 -123.138722 51 162ft 0kts
19-Jul-21 10:58 45.198745 -123.138722 51 162ft 0kts
19-Jul-21 10:59 45.198745 -123.138722 51 162ft 0kts
19-Jul-21 11:00 45.198745 -123.138722 51 162ft 0kts

Navigation Log

Ident Type
Flight plan parsing failed, navigation log unavailable